createdAt,value
2018-10-05T00:02:21.859Z,8.70
2018-10-05T00:04:51.569Z,9.47
2018-10-05T00:07:21.302Z,9.20
2018-10-05T00:09:50.987Z,9.97
2018-10-05T00:12:20.796Z,10.37
2018-10-05T00:14:50.529Z,9.30
2018-10-05T00:17:20.181Z,9.30
2018-10-05T00:19:50.106Z,9.47
2018-10-05T00:22:20.867Z,9.70
2018-10-05T00:24:50.349Z,8.27
2018-10-05T00:27:21.213Z,9.73
2018-10-05T00:29:52.014Z,9.33
2018-10-05T00:32:21.599Z,10.37
2018-10-05T00:34:51.307Z,9.97
2018-10-05T00:37:20.975Z,12.20
2018-10-05T00:39:50.736Z,10.93
2018-10-05T00:42:20.420Z,11.00
2018-10-05T00:44:50.172Z,9.93
2018-10-05T00:47:19.932Z,10.07
2018-10-05T00:49:49.562Z,10.23
2018-10-05T00:52:19.285Z,11.40
2018-10-05T00:54:49.011Z,10.40
2018-10-05T00:57:25.755Z,10.47
2018-10-05T00:59:55.341Z,12.13
2018-10-05T01:02:24.861Z,11.17
2018-10-05T01:04:54.478Z,10.83
2018-10-05T01:07:24.670Z,13.47
2018-10-05T01:09:54.274Z,13.40
2018-10-05T01:12:23.987Z,10.93
2018-10-05T01:14:53.576Z,10.60
2018-10-05T01:17:23.631Z,15.33
2018-10-05T01:19:53.285Z,21.07
2018-10-05T01:22:22.852Z,11.60
2018-10-05T01:24:52.338Z,10.40
2018-10-05T01:27:21.859Z,11.23
2018-10-05T01:29:51.452Z,10.53
2018-10-05T01:32:21.167Z,11.73
2018-10-05T01:34:50.758Z,11.30
2018-10-05T01:37:20.363Z,11.40
2018-10-05T01:39:49.929Z,10.83
2018-10-05T01:42:19.519Z,11.27
2018-10-05T01:44:49.061Z,11.23
2018-10-05T01:47:18.682Z,11.37
2018-10-05T01:49:48.349Z,12.20
2018-10-05T01:52:18.012Z,10.73
2018-10-05T01:54:47.549Z,10.73
2018-10-05T01:57:17.079Z,11.10
2018-10-05T01:59:46.666Z,10.90
2018-10-05T02:02:16.180Z,10.73
2018-10-05T02:04:45.721Z,11.67
2018-10-05T02:07:15.368Z,10.60
2018-10-05T02:09:44.903Z,10.87
2018-10-05T02:12:14.449Z,9.43
2018-10-05T02:14:44.050Z,9.10
2018-10-05T02:17:13.732Z,9.13
2018-10-05T02:19:43.305Z,10.17
2018-10-05T02:22:13.020Z,9.03
2018-10-05T02:24:42.598Z,9.20
2018-10-05T02:27:12.417Z,9.57
2018-10-05T02:29:42.271Z,8.90
2018-10-05T02:32:11.711Z,8.87
2018-10-05T02:34:41.247Z,8.97
2018-10-05T02:37:10.718Z,8.90
2018-10-05T02:39:40.320Z,8.87
2018-10-05T02:42:09.964Z,8.80
2018-10-05T02:44:39.402Z,8.80
2018-10-05T02:47:09.122Z,10.07
2018-10-05T02:49:38.814Z,9.07
2018-10-05T02:52:08.471Z,8.63
2018-10-05T02:54:37.899Z,9.60
2018-10-05T02:57:07.525Z,9.77
2018-10-05T02:59:37.022Z,9.90
2018-10-05T03:02:17.378Z,10.30
2018-10-05T03:04:47.095Z,9.73
2018-10-05T03:07:16.726Z,9.93
2018-10-05T03:09:46.389Z,10.70
2018-10-05T03:12:15.804Z,9.40
2018-10-05T03:14:45.785Z,10.47
2018-10-05T03:17:17.366Z,11.37
2018-10-05T03:19:47.120Z,10.67
2018-10-05T03:22:16.630Z,10.33
2018-10-05T03:24:46.345Z,9.93
2018-10-05T03:27:15.944Z,10.70
2018-10-05T03:29:46.537Z,9.63
2018-10-05T03:32:16.179Z,9.90
2018-10-05T03:34:45.806Z,9.53
2018-10-05T03:37:15.361Z,10.43
2018-10-05T03:39:44.928Z,10.07
2018-10-05T03:42:14.470Z,10.13
2018-10-05T03:44:44.052Z,10.30
2018-10-05T03:47:13.584Z,11.00
2018-10-05T03:49:43.179Z,29.40
2018-10-05T03:52:13.135Z,15.00
2018-10-05T03:54:42.773Z,11.57
2018-10-05T03:57:12.314Z,10.80
2018-10-05T03:59:42.035Z,12.07
2018-10-05T04:02:11.592Z,11.40
2018-10-05T04:04:41.133Z,11.23
2018-10-05T04:07:11.450Z,11.57
2018-10-05T04:09:41.029Z,11.43
2018-10-05T04:12:10.561Z,9.57
2018-10-05T04:14:40.159Z,10.93
2018-10-05T04:17:09.986Z,11.17
2018-10-05T04:19:39.532Z,10.70
2018-10-05T04:22:09.295Z,10.70
2018-10-05T04:24:38.955Z,10.53
2018-10-05T04:27:08.570Z,10.40
2018-10-05T04:29:38.117Z,12.57
2018-10-05T04:32:07.907Z,12.53
2018-10-05T04:34:37.407Z,11.30
2018-10-05T04:37:06.951Z,11.63
2018-10-05T04:39:36.460Z,10.60
2018-10-05T04:42:06.072Z,10.00
2018-10-05T04:44:35.723Z,10.40
2018-10-05T04:47:05.362Z,9.77
2018-10-05T04:49:35.229Z,10.80
2018-10-05T04:52:04.571Z,10.43
2018-10-05T04:54:34.159Z,10.17
2018-10-05T04:57:03.681Z,10.90
2018-10-05T04:59:33.259Z,11.63
2018-10-05T05:02:02.973Z,11.30
2018-10-05T05:04:32.567Z,11.60
2018-10-05T05:07:02.115Z,12.37
2018-10-05T05:09:32.602Z,13.43
2018-10-05T05:12:02.160Z,12.27
2018-10-05T05:14:32.014Z,13.70
2018-10-05T05:17:01.594Z,12.77
2018-10-05T05:19:31.180Z,12.57
2018-10-05T05:22:00.751Z,13.50
2018-10-05T05:24:30.442Z,14.10
2018-10-05T05:26:59.982Z,15.33
2018-10-05T05:29:29.578Z,16.70
2018-10-05T05:31:59.304Z,12.20
2018-10-05T05:34:28.958Z,14.60
2018-10-05T05:36:58.537Z,13.40
2018-10-05T05:39:27.991Z,11.73
2018-10-05T05:41:57.572Z,14.17
2018-10-05T05:44:27.236Z,15.73
2018-10-05T05:46:56.797Z,15.63
2018-10-05T05:49:26.466Z,12.67
2018-10-05T05:51:56.198Z,13.80
2018-10-05T05:54:25.738Z,12.30
2018-10-05T05:56:55.430Z,13.93
2018-10-05T05:59:25.702Z,13.00
2018-10-05T06:01:55.340Z,12.70
2018-10-05T06:04:24.915Z,13.00
2018-10-05T06:06:54.604Z,13.37
2018-10-05T06:09:24.647Z,11.87
2018-10-05T06:11:54.280Z,12.10
2018-10-05T06:14:23.878Z,15.40
2018-10-05T06:16:54.682Z,14.23
2018-10-05T06:19:24.196Z,13.90
2018-10-05T06:21:53.781Z,12.57
2018-10-05T06:24:23.730Z,13.63
2018-10-05T06:26:53.323Z,16.13
2018-10-05T06:29:22.834Z,13.77
2018-10-05T06:31:52.431Z,13.10
2018-10-05T06:34:22.196Z,12.00
2018-10-05T06:36:51.718Z,13.27
2018-10-05T06:39:21.379Z,11.77
2018-10-05T06:41:50.937Z,15.53
2018-10-05T06:44:20.819Z,13.83
2018-10-05T06:46:50.601Z,12.20
2018-10-05T06:49:20.308Z,11.83
2018-10-05T06:51:49.930Z,12.53
2018-10-05T06:54:20.770Z,15.30
2018-10-05T06:56:50.573Z,13.47
2018-10-05T06:59:20.204Z,14.13
2018-10-05T07:01:49.807Z,13.07
2018-10-05T07:04:19.341Z,11.60
2018-10-05T07:06:49.025Z,12.23
2018-10-05T07:09:18.759Z,11.80
2018-10-05T07:11:48.279Z,12.10
2018-10-05T07:14:17.932Z,11.73
2018-10-05T07:16:47.576Z,12.43
2018-10-05T07:19:17.035Z,14.27
2018-10-05T07:21:46.603Z,12.80
2018-10-05T07:24:16.117Z,12.87
2018-10-05T07:26:45.627Z,12.60
2018-10-05T07:29:15.075Z,12.23
2018-10-05T07:31:44.747Z,11.57
2018-10-05T07:34:14.388Z,12.90
2018-10-05T07:36:44.390Z,14.03
2018-10-05T07:39:13.894Z,14.17
2018-10-05T07:41:44.367Z,14.27
2018-10-05T07:44:13.993Z,15.03
2018-10-05T07:46:43.632Z,16.33
2018-10-05T07:49:13.137Z,15.53
2018-10-05T07:51:42.748Z,17.50
2018-10-05T07:54:12.409Z,14.50
2018-10-05T07:56:43.144Z,15.43
2018-10-05T07:59:13.467Z,14.43
2018-10-05T08:01:43.103Z,15.70
2018-10-05T08:04:12.742Z,14.10
2018-10-05T08:06:42.260Z,15.17
2018-10-05T08:09:12.065Z,13.80
2018-10-05T08:11:41.880Z,14.60
2018-10-05T08:14:11.726Z,13.77
2018-10-05T08:16:41.309Z,14.87
2018-10-05T08:19:10.864Z,12.90
2018-10-05T08:21:40.559Z,13.77
2018-10-05T08:24:10.047Z,12.73
2018-10-05T08:26:39.705Z,11.30
2018-10-05T08:29:09.427Z,14.17
2018-10-05T08:31:39.995Z,11.87
2018-10-05T08:34:09.600Z,9.70
2018-10-05T08:36:39.681Z,10.70
2018-10-05T08:39:11.799Z,10.47
2018-10-05T08:41:41.540Z,10.83
2018-10-05T08:44:11.408Z,10.60
2018-10-05T08:46:41.071Z,9.20
2018-10-05T08:49:10.665Z,9.00
2018-10-05T08:51:40.818Z,8.70
2018-10-05T08:54:10.582Z,8.13
2018-10-05T08:56:40.876Z,8.63
2018-10-05T08:59:12.930Z,8.67
2018-10-05T09:01:42.519Z,8.17
2018-10-05T09:04:12.138Z,8.18
2018-10-05T09:06:41.757Z,8.10
2018-10-05T09:09:12.301Z,8.40
2018-10-05T09:11:41.788Z,6.73
2018-10-05T09:14:11.329Z,6.93
2018-10-05T09:16:41.123Z,6.90
2018-10-05T09:19:10.779Z,7.23
2018-10-05T09:21:40.274Z,6.60
2018-10-05T09:24:09.887Z,6.97
2018-10-05T09:26:39.549Z,7.63
2018-10-05T09:29:09.087Z,7.60
2018-10-05T09:31:39.531Z,6.67
2018-10-05T09:34:09.769Z,7.13
2018-10-05T09:36:39.420Z,6.83
2018-10-05T09:39:09.188Z,8.20
2018-10-05T09:41:38.777Z,6.47
2018-10-05T09:44:08.286Z,7.27
2018-10-05T09:46:37.969Z,6.50
2018-10-05T09:49:07.426Z,6.53
2018-10-05T09:51:36.898Z,7.00
2018-10-05T09:54:06.467Z,6.97
2018-10-05T09:56:36.046Z,6.77
2018-10-05T09:59:06.234Z,7.50
2018-10-05T10:01:40.885Z,7.43
2018-10-05T10:04:10.469Z,7.70
2018-10-05T10:06:39.911Z,9.17
2018-10-05T10:09:10.335Z,9.67
2018-10-05T10:11:39.793Z,9.73
2018-10-05T10:14:09.348Z,10.17
2018-10-05T10:16:38.811Z,9.80
2018-10-05T10:19:08.490Z,9.97
2018-10-05T10:21:38.235Z,8.57
2018-10-05T10:24:07.676Z,8.43
2018-10-05T10:26:37.415Z,7.93
2018-10-05T10:29:07.054Z,7.07
2018-10-05T10:31:37.555Z,7.80
2018-10-05T10:34:07.103Z,5.97
2018-10-05T10:36:37.416Z,6.27
2018-10-05T10:39:08.491Z,6.30
2018-10-05T10:41:38.080Z,6.00
2018-10-05T10:44:07.852Z,6.93
2018-10-05T10:46:37.456Z,6.40
2018-10-05T10:49:07.409Z,6.27
2018-10-05T10:51:37.105Z,5.60
2018-10-05T10:54:07.521Z,6.40
2018-10-05T10:56:37.204Z,5.90
2018-10-05T10:59:06.804Z,5.60
2018-10-05T11:01:36.461Z,5.80
2018-10-05T11:04:06.119Z,5.30
2018-10-05T11:06:35.748Z,6.27
2018-10-05T11:09:06.289Z,6.03
2018-10-05T11:11:35.891Z,6.87
2018-10-05T11:14:05.507Z,6.07
2018-10-05T11:16:35.791Z,6.80
2018-10-05T11:19:05.398Z,5.77
2018-10-05T11:21:35.067Z,6.10
2018-10-05T11:24:04.753Z,5.53
2018-10-05T11:26:34.267Z,5.87
2018-10-05T11:29:03.712Z,5.63
2018-10-05T11:31:33.386Z,5.80
2018-10-05T11:34:02.918Z,5.77
2018-10-05T11:36:32.560Z,6.07
2018-10-05T11:39:02.079Z,5.97
2018-10-05T11:41:31.846Z,5.87
2018-10-05T11:44:01.422Z,5.80
2018-10-05T11:46:31.038Z,6.53
2018-10-05T11:49:00.611Z,6.50
2018-10-05T11:51:30.026Z,6.00
2018-10-05T11:53:59.825Z,6.13
2018-10-05T11:56:29.738Z,6.60
2018-10-05T11:58:59.266Z,7.00
2018-10-05T12:01:29.081Z,7.07
2018-10-05T12:03:58.719Z,7.40
2018-10-05T12:06:28.225Z,9.13
2018-10-05T12:08:57.985Z,8.70
2018-10-05T12:11:28.592Z,8.77
2018-10-05T12:13:58.998Z,6.70
2018-10-05T12:16:28.569Z,6.47
2018-10-05T12:18:58.074Z,6.50
2018-10-05T12:21:27.721Z,6.23
2018-10-05T12:23:57.335Z,6.47
2018-10-05T12:26:26.947Z,6.83
2018-10-05T12:28:56.734Z,6.00
2018-10-05T12:31:26.333Z,5.97
2018-10-05T12:33:56.169Z,6.83
2018-10-05T12:36:25.675Z,6.50
2018-10-05T12:38:55.375Z,6.57
2018-10-05T12:41:26.348Z,5.70
2018-10-05T12:43:56.465Z,7.10
2018-10-05T12:46:26.911Z,6.23
2018-10-05T12:48:56.567Z,7.20
2018-10-05T12:51:26.147Z,6.10
2018-10-05T12:53:55.765Z,5.87
2018-10-05T12:56:25.292Z,6.03
2018-10-05T12:58:54.893Z,6.60
2018-10-05T13:01:24.552Z,5.87
2018-10-05T13:03:54.787Z,5.90
2018-10-05T13:06:24.423Z,6.20
2018-10-05T13:08:54.100Z,7.10
2018-10-05T13:11:23.756Z,5.77
2018-10-05T13:13:53.332Z,7.37
2018-10-05T13:16:22.890Z,6.20
2018-10-05T13:18:52.823Z,6.70
2018-10-05T13:21:22.476Z,7.00
2018-10-05T13:23:52.104Z,6.73
2018-10-05T13:26:21.758Z,6.83
2018-10-05T13:28:51.428Z,6.40
2018-10-05T13:31:20.983Z,6.97
2018-10-05T13:33:50.663Z,7.23
2018-10-05T13:36:20.307Z,6.67
2018-10-05T13:38:49.921Z,7.13
2018-10-05T13:41:19.562Z,7.07
2018-10-05T13:43:49.119Z,7.27
2018-10-05T13:46:18.707Z,6.90
2018-10-05T13:48:48.360Z,6.47
2018-10-05T13:51:18.059Z,6.83
2018-10-05T13:53:47.605Z,6.70
2018-10-05T13:56:17.378Z,6.83
2018-10-05T13:58:46.824Z,17.80
2018-10-05T14:01:17.804Z,6.63
2018-10-05T14:03:47.190Z,6.77
2018-10-05T14:06:16.783Z,6.80
2018-10-05T14:08:46.294Z,8.33
2018-10-05T14:11:16.005Z,7.83
2018-10-05T14:13:45.690Z,7.13
2018-10-05T14:16:15.230Z,7.07
2018-10-05T14:18:44.734Z,6.73
2018-10-05T14:21:14.467Z,6.80
2018-10-05T14:23:44.482Z,7.80
2018-10-05T14:26:14.206Z,7.47
2018-10-05T14:28:43.944Z,6.43
2018-10-05T14:31:14.011Z,7.50
2018-10-05T14:33:43.698Z,7.53
2018-10-05T14:36:13.364Z,7.20
2018-10-05T14:38:42.927Z,6.70
2018-10-05T14:41:12.527Z,7.87
2018-10-05T14:43:42.181Z,7.10
2018-10-05T14:46:11.716Z,8.07
2018-10-05T14:48:41.298Z,17.07
2018-10-05T14:51:10.832Z,9.63
2018-10-05T14:53:40.483Z,8.80
2018-10-05T14:56:10.270Z,9.03
2018-10-05T14:58:39.763Z,8.60
2018-10-05T15:01:09.260Z,9.10
2018-10-05T15:03:39.000Z,8.83
2018-10-05T15:06:08.495Z,10.30
2018-10-05T15:08:38.153Z,9.53
2018-10-05T15:11:07.787Z,10.77
2018-10-05T15:13:37.354Z,9.23
2018-10-05T15:16:06.913Z,9.03
2018-10-05T15:18:36.835Z,8.50
2018-10-05T15:21:06.426Z,9.10
2018-10-05T15:23:35.993Z,9.13
2018-10-05T15:26:05.576Z,8.77
2018-10-05T15:28:35.165Z,7.50
2018-10-05T15:31:04.805Z,8.93
2018-10-05T15:33:34.488Z,8.73
2018-10-05T15:36:04.251Z,8.70
2018-10-05T15:38:33.857Z,9.07
2018-10-05T15:41:03.473Z,8.67
2018-10-05T15:43:33.123Z,8.73
2018-10-05T15:46:06.931Z,8.83
2018-10-05T15:48:37.022Z,8.60
2018-10-05T15:51:08.022Z,8.17
2018-10-05T15:53:37.680Z,8.93
2018-10-05T15:56:07.408Z,9.37
2018-10-05T15:58:37.068Z,8.57
2018-10-05T16:01:06.758Z,9.30
2018-10-05T16:03:36.325Z,9.17
2018-10-05T16:06:05.953Z,9.10
2018-10-05T16:08:36.178Z,9.37
2018-10-05T16:11:05.682Z,9.90
2018-10-05T16:13:35.289Z,9.50
2018-10-05T16:16:04.852Z,9.13
2018-10-05T16:18:34.444Z,8.80
2018-10-05T16:21:04.156Z,9.30
2018-10-05T16:23:34.235Z,10.00
2018-10-05T16:26:03.803Z,10.37
2018-10-05T16:28:33.700Z,11.40
2018-10-05T16:31:03.363Z,10.87
2018-10-05T16:33:33.087Z,11.63
2018-10-05T16:36:02.718Z,10.97
2018-10-05T16:38:32.256Z,12.67
2018-10-05T16:41:01.806Z,14.33
2018-10-05T16:43:31.396Z,13.83
2018-10-05T16:46:01.020Z,14.50
2018-10-05T16:48:30.579Z,14.67
2018-10-05T16:51:00.368Z,14.30
2018-10-05T16:53:31.091Z,15.37
2018-10-05T16:56:00.659Z,15.43
2018-10-05T16:58:30.334Z,16.67
2018-10-05T17:00:59.885Z,19.90
2018-10-05T17:03:29.429Z,21.20
2018-10-05T17:05:59.106Z,23.07
2018-10-05T17:08:29.958Z,27.53
2018-10-05T17:10:59.610Z,32.90
2018-10-05T17:13:29.225Z,26.87
2018-10-05T17:15:58.781Z,23.07
2018-10-05T17:18:28.271Z,23.80
2018-10-05T17:20:58.290Z,22.10
2018-10-05T17:23:27.953Z,21.30
2018-10-05T17:25:57.627Z,21.13
2018-10-05T17:28:27.355Z,23.17
2018-10-05T17:30:57.065Z,19.10
2018-10-05T17:33:26.727Z,18.27
2018-10-05T17:35:56.280Z,19.93
2018-10-05T17:38:26.245Z,17.07
2018-10-05T17:40:55.745Z,16.80
2018-10-05T17:43:25.272Z,16.10
2018-10-05T17:45:54.839Z,17.37
2018-10-05T17:48:24.500Z,16.07
2018-10-05T17:50:54.002Z,17.07
2018-10-05T17:53:23.644Z,15.43
2018-10-05T17:55:53.383Z,14.90
2018-10-05T17:58:22.929Z,14.17
2018-10-05T18:00:52.472Z,14.17
2018-10-05T18:03:22.004Z,14.93
2018-10-05T18:05:51.572Z,13.87
2018-10-05T18:08:21.254Z,12.87
2018-10-05T18:10:50.803Z,17.97
2018-10-05T18:13:20.328Z,13.90
2018-10-05T18:15:51.432Z,16.37
2018-10-05T18:18:21.039Z,14.70
2018-10-05T18:20:51.068Z,14.90
2018-10-05T18:23:20.629Z,13.33
2018-10-05T18:25:50.917Z,15.43
2018-10-05T18:28:20.568Z,14.63
2018-10-05T18:30:50.050Z,15.00
2018-10-05T18:33:19.774Z,14.73
2018-10-05T18:35:49.467Z,14.97
2018-10-05T18:38:19.067Z,15.37
2018-10-05T18:40:48.819Z,20.93
2018-10-05T18:43:18.373Z,18.30
2018-10-05T18:45:47.988Z,17.33
2018-10-05T18:48:17.482Z,17.10
2018-10-05T18:50:48.043Z,16.67
2018-10-05T18:53:17.620Z,18.27
2018-10-05T18:55:47.287Z,19.33
2018-10-05T18:58:16.900Z,18.60
2018-10-05T19:00:46.447Z,20.73
2018-10-05T19:03:16.106Z,17.17
2018-10-05T19:05:45.871Z,17.30
2018-10-05T19:08:15.441Z,18.43
2018-10-05T19:10:45.071Z,15.70
2018-10-05T19:13:14.430Z,17.47
2018-10-05T19:15:44.040Z,16.00
2018-10-05T19:18:13.645Z,13.77
2018-10-05T19:20:43.228Z,13.97
2018-10-05T19:23:12.904Z,15.07
2018-10-05T19:25:42.670Z,14.40
2018-10-05T19:28:12.182Z,20.50
2018-10-05T19:30:41.724Z,15.87
2018-10-05T19:33:11.585Z,15.93
2018-10-05T19:35:41.189Z,14.73
2018-10-05T19:38:10.777Z,15.27
2018-10-05T19:40:40.449Z,14.53
2018-10-05T19:43:10.024Z,13.13
2018-10-05T19:45:39.591Z,15.77
2018-10-05T19:48:09.162Z,14.90
2018-10-05T19:50:38.724Z,12.97
2018-10-05T19:53:08.483Z,14.07
2018-10-05T19:55:38.122Z,13.33
2018-10-05T19:58:07.596Z,13.00
2018-10-05T20:00:36.987Z,16.80
2018-10-05T20:03:06.665Z,17.07
2018-10-05T20:05:36.411Z,15.77
2018-10-05T20:08:06.056Z,15.10
2018-10-05T20:10:35.891Z,15.37
2018-10-05T20:13:06.014Z,13.77
2018-10-05T20:15:35.594Z,15.93
2018-10-05T20:18:05.335Z,17.60
2018-10-05T20:20:34.991Z,17.67
2018-10-05T20:23:04.544Z,16.17
2018-10-05T20:25:34.110Z,14.60
2018-10-05T20:28:03.847Z,13.73
2018-10-05T20:30:33.521Z,13.87
2018-10-05T20:33:03.076Z,16.53
2018-10-05T20:35:34.565Z,15.03
2018-10-05T20:38:04.217Z,14.13
2018-10-05T20:40:33.882Z,12.77
2018-10-05T20:43:03.406Z,12.27
2018-10-05T20:45:32.851Z,13.00
2018-10-05T20:48:02.460Z,12.80
2018-10-05T20:50:32.013Z,12.87
2018-10-05T20:53:01.632Z,13.10
2018-10-05T20:55:31.180Z,12.30
2018-10-05T20:58:01.554Z,12.13
2018-10-05T21:00:31.250Z,13.23
2018-10-05T21:03:00.808Z,13.40
2018-10-05T21:05:30.395Z,12.50
2018-10-05T21:08:00.105Z,13.30
2018-10-05T21:10:29.736Z,13.90
2018-10-05T21:12:59.403Z,14.50
2018-10-05T21:15:28.971Z,14.70
2018-10-05T21:17:58.611Z,14.87
2018-10-05T21:20:28.255Z,14.27
2018-10-05T21:22:57.910Z,14.13
2018-10-05T21:25:27.448Z,15.20
2018-10-05T21:27:56.990Z,14.83
2018-10-05T21:30:26.549Z,15.03
2018-10-05T21:32:56.204Z,14.80
2018-10-05T21:35:25.863Z,16.67
2018-10-05T21:37:55.260Z,15.40
2018-10-05T21:40:24.743Z,15.87
2018-10-05T21:42:54.433Z,17.03
2018-10-05T21:45:24.030Z,16.50
2018-10-05T21:47:53.458Z,17.33
2018-10-05T21:50:23.053Z,15.87
2018-10-05T21:52:52.929Z,16.77
2018-10-05T21:55:22.551Z,17.20
2018-10-05T21:57:52.124Z,16.70
2018-10-05T22:00:21.729Z,18.17
2018-10-05T22:02:51.482Z,17.97
2018-10-05T22:05:21.070Z,18.60
2018-10-05T22:07:50.708Z,19.23
2018-10-05T22:10:20.289Z,17.90
2018-10-05T22:12:49.925Z,18.10
2018-10-05T22:15:19.370Z,19.93
2018-10-05T22:17:49.499Z,18.87
2018-10-05T22:20:19.136Z,17.90
2018-10-05T22:22:48.811Z,18.93
2018-10-05T22:25:18.444Z,19.83
2018-10-05T22:27:48.083Z,21.70
2018-10-05T22:30:17.547Z,18.57
2018-10-05T22:32:47.179Z,18.60
2018-10-05T22:35:16.866Z,18.57
2018-10-05T22:37:46.526Z,18.33
2018-10-05T22:40:16.108Z,16.70
2018-10-05T22:42:45.703Z,18.13
2018-10-05T22:45:15.415Z,17.40
2018-10-05T22:47:44.939Z,19.07
2018-10-05T22:50:14.620Z,18.37
2018-10-05T22:52:44.248Z,17.13
2018-10-05T22:55:13.862Z,18.87
2018-10-05T22:57:43.542Z,17.47
2018-10-05T23:00:13.233Z,18.23
2018-10-05T23:02:42.724Z,20.47
2018-10-05T23:05:12.897Z,18.40
2018-10-05T23:07:42.479Z,18.90
2018-10-05T23:10:12.084Z,18.97
2018-10-05T23:12:41.681Z,17.77
2018-10-05T23:15:11.773Z,19.97
2018-10-05T23:17:41.663Z,18.80
2018-10-05T23:20:11.338Z,18.47
2018-10-05T23:22:40.891Z,19.87
2018-10-05T23:25:10.574Z,20.37
2018-10-05T23:27:39.977Z,18.67
2018-10-05T23:30:09.549Z,19.57
2018-10-05T23:32:39.163Z,19.07
2018-10-05T23:35:08.683Z,19.50
2018-10-05T23:37:39.500Z,18.47
2018-10-05T23:40:09.138Z,18.90
2018-10-05T23:42:39.434Z,18.33
2018-10-05T23:45:09.047Z,17.70
2018-10-05T23:47:39.143Z,18.23
2018-10-05T23:50:09.108Z,18.67
2018-10-05T23:52:57.037Z,19.00
2018-10-05T23:55:26.720Z,19.60
2018-10-05T23:57:56.699Z,18.17
